Time;durP1;ratioP1;P1;durP2;ratioP2;P2;SDS_P1;SDS_P2;PMS_P1;PMS_P2;Temp;Humidity;BMP_temperature;BMP_pressure;BME280_temperature;BME280_humidity;BME280_pressure;Samples;Min_cycle;Max_cycle;Signal;HPM_P1;HPM_P2
2022/04/03 00:01:27;;;;;;;2.30;0.80;;;21.10;93.70;;;;;;5030404;28;20385;-83
2022/04/03 00:03:54;;;;;;;2.30;0.80;;;21.20;92.20;;;;;;5030827;28;20384;-82
2022/04/03 00:06:22;;;;;;;2.33;0.80;;;21.20;92.20;;;;;;5030749;28;20381;-82
2022/04/03 00:08:51;;;;;;;2.72;0.90;;;21.40;87.50;;;;;;5030760;28;20907;-84
2022/04/03 00:11:20;;;;;;;2.58;0.82;;;21.60;85.20;;;;;;5031111;28;20385;-83
2022/04/03 00:13:49;;;;;;;2.72;0.90;;;21.70;77.90;;;;;;5030730;28;20377;-90
2022/04/03 00:16:16;;;;;;;2.83;0.80;;;21.80;80.90;;;;;;5030773;28;20378;-86
2022/04/03 00:18:45;;;;;;;2.20;0.83;;;21.90;78.40;;;;;;5031413;28;20377;-90
2022/04/03 00:21:15;;;;;;;2.50;0.90;;;22.20;78.90;;;;;;5030529;28;20386;-84
2022/04/03 00:23:42;;;;;;;2.40;0.80;;;22.50;76.80;;;;;;5030808;28;20409;-84
2022/04/03 00:26:09;;;;;;;2.10;0.87;;;22.80;71.20;;;;;;5030617;28;20734;-85
2022/04/03 00:28:36;;;;;;;3.92;1.00;;;22.90;66.70;;;;;;5030732;28;20374;-91
2022/04/03 00:31:03;;;;;;;1.85;0.80;;;22.80;66.70;;;;;;5030649;28;20413;-82
2022/04/03 00:33:30;;;;;;;3.67;0.90;;;22.70;63.00;;;;;;5030188;28;20403;-82
2022/04/03 00:35:57;;;;;;;1.83;0.85;;;22.40;63.00;;;;;;5030832;28;20382;-87
2022/04/03 00:38:24;;;;;;;3.50;1.00;;;22.50;65.00;;;;;;5030662;28;20454;-84
2022/04/03 00:40:51;;;;;;;2.58;0.90;;;22.50;64.40;;;;;;5030339;28;20436;-88
2022/04/03 00:43:19;;;;;;;2.25;0.73;;;22.60;63.80;;;;;;5030482;28;20906;-89
2022/04/03 00:45:47;;;;;;;3.83;0.85;;;22.80;63.10;;;;;;5030711;28;20382;-89
2022/04/03 00:48:15;;;;;;;3.70;0.98;;;23.00;63.60;;;;;;5030890;28;20448;-92
2022/04/03 00:50:44;;;;;;;2.10;0.98;;;23.30;63.20;;;;;;5013522;28;20385;-84
2022/04/03 00:53:11;;;;;;;3.83;1.00;;;23.40;60.80;;;;;;5030112;28;20504;-90
2022/04/03 00:55:43;;;;;;;2.30;0.80;;;23.40;61.10;;;;;;5030047;28;20732;-86
2022/04/03 00:58:14;;;;;;;2.63;0.90;;;23.30;61.20;;;;;;5030038;28;20365;-83
2022/04/03 01:00:41;;;;;;;4.85;0.93;;;23.20;58.50;;;;;;5029583;28;20405;-86
2022/04/03 01:03:08;;;;;;;3.85;0.90;;;23.40;59.60;;;;;;5029978;28;20449;-82
2022/04/03 01:05:36;;;;;;;2.42;0.80;;;23.20;57.60;;;;;;5029638;28;20792;-86
2022/04/03 01:08:03;;;;;;;5.60;1.10;;;23.00;59.10;;;;;;5029959;28;20370;-88
2022/04/03 01:10:31;;;;;;;3.47;1.13;;;23.00;60.40;;;;;;5029718;28;20842;-85
2022/04/03 01:12:58;;;;;;;4.55;1.08;;;22.90;59.90;;;;;;5028675;28;20422;-86
2022/04/03 01:15:25;;;;;;;1.90;1.00;;;22.80;60.60;;;;;;5029626;28;20412;-88
2022/04/03 01:17:52;;;;;;;4.40;1.00;;;22.90;61.30;;;;;;5030084;28;20780;-90
2022/04/03 01:20:19;;;;;;;4.07;1.17;;;22.90;60.00;;;;;;5030407;28;20479;-91
2022/04/03 01:22:46;;;;;;;3.45;1.00;;;22.80;60.70;;;;;;5029899;28;20401;-85
2022/04/03 01:25:14;;;;;;;3.60;0.90;;;22.90;60.80;;;;;;5029833;28;20389;-89
2022/04/03 01:27:41;;;;;;;2.83;1.00;;;23.00;60.30;;;;;;5013795;28;20381;-87
2022/04/03 01:30:12;;;;;;;4.30;1.13;;;22.80;59.90;;;;;;5034195;28;20400;-86
2022/04/03 01:32:39;;;;;;;2.88;1.02;;;23.00;60.10;;;;;;5042035;28;20413;-80
2022/04/03 01:35:07;;;;;;;4.15;0.90;;;22.90;60.50;;;;;;5044727;28;20404;-81
2022/04/03 01:37:34;;;;;;;1.67;0.82;;;23.30;60.60;;;;;;5030664;28;20785;-89
2022/04/03 01:40:01;;;;;;;2.30;1.00;;;23.90;59.50;;;;;;5029552;28;20410;-82
2022/04/03 01:42:28;;;;;;;3.70;1.05;;;24.40;58.10;;;;;;5029793;28;20447;-84
2022/04/03 01:44:55;;;;;;;2.38;1.00;;;24.60;58.10;;;;;;5029298;28;20504;-89
2022/04/03 01:47:25;;;;;;;2.73;1.10;;;24.70;57.20;;;;;;5030023;28;20373;-84
2022/04/03 01:49:52;;;;;;;3.10;1.02;;;24.80;55.80;;;;;;5029595;28;20472;-88
2022/04/03 01:52:19;;;;;;;3.92;1.00;;;25.10;56.00;;;;;;5030351;28;20854;-87
2022/04/03 01:54:46;;;;;;;3.22;1.00;;;25.40;55.50;;;;;;5029716;28;20461;-83
2022/04/03 01:57:13;;;;;;;3.20;0.90;;;25.60;54.90;;;;;;5030488;28;20384;-82
2022/04/03 01:59:40;;;;;;;2.60;0.98;;;25.40;55.30;;;;;;5031357;28;20403;-88
2022/04/03 02:02:07;;;;;;;2.90;0.88;;;25.30;54.30;;;;;;5032281;28;20382;-87
2022/04/03 02:04:33;;;;;;;4.10;1.00;;;25.80;55.20;;;;;;5041570;28;20389;-84
2022/04/03 02:07:03;;;;;;;2.63;0.90;;;26.50;54.50;;;;;;5039879;28;20462;-88
2022/04/03 02:09:31;;;;;;;3.78;1.00;;;26.10;52.50;;;;;;5031549;28;20401;-88
2022/04/03 02:11:59;;;;;;;2.65;0.95;;;26.40;52.90;;;;;;5040072;28;20401;-96
2022/04/03 02:14:26;;;;;;;2.90;0.95;;;26.30;52.70;;;;;;5035883;28;20392;-84
2022/04/03 02:16:55;;;;;;;2.13;0.90;;;26.50;51.70;;;;;;5030169;28;20369;-86
2022/04/03 02:19:22;;;;;;;2.97;1.17;;;26.20;52.40;;;;;;5029368;28;20885;-89
2022/04/03 02:21:49;;;;;;;2.03;1.00;;;26.60;52.60;;;;;;5029363;28;20381;-83
2022/04/03 02:24:16;;;;;;;2.97;1.13;;;26.90;53.20;;;;;;5029891;28;20385;-89
2022/04/03 02:26:43;;;;;;;3.58;1.00;;;27.20;51.80;;;;;;5033765;28;20734;-87
2022/04/03 02:29:10;;;;;;;3.28;0.98;;;26.90;51.30;;;;;;5033712;28;20384;-89
2022/04/03 02:31:37;;;;;;;4.35;1.10;;;26.50;52.70;;;;;;5033085;28;20710;-90
2022/04/03 02:34:06;;;;;;;3.47;1.00;;;26.70;52.50;;;;;;5033256;28;20392;-86
2022/04/03 02:36:33;;;;;;;3.00;1.00;;;26.90;51.40;;;;;;5032912;28;20381;-88
2022/04/03 02:39:00;;;;;;;2.22;0.90;;;27.10;51.80;;;;;;5033005;28;20385;-86
2022/04/03 02:41:27;;;;;;;2.80;1.00;;;27.20;51.20;;;;;;5033394;28;20447;-91
2022/04/03 02:43:55;;;;;;;3.42;1.05;;;27.10;50.30;;;;;;5032476;28;20389;-90
2022/04/03 02:46:22;;;;;;;3.13;1.10;;;27.20;49.80;;;;;;5032679;28;20392;-85
2022/04/03 02:48:49;;;;;;;4.13;1.10;;;27.40;52.00;;;;;;5032466;28;20374;-88
2022/04/03 02:51:16;;;;;;;2.35;0.90;;;27.70;50.70;;;;;;5033441;28;20440;-91
2022/04/03 02:53:43;;;;;;;2.55;1.05;;;27.00;50.60;;;;;;5032645;28;20512;-88
2022/04/03 02:56:10;;;;;;;2.87;1.17;;;26.70;51.40;;;;;;5032496;28;20373;-85
2022/04/03 02:58:37;;;;;;;3.70;0.90;;;26.70;50.80;;;;;;5033241;28;20383;-85
2022/04/03 03:01:04;;;;;;;3.33;1.10;;;26.90;51.20;;;;;;5032581;28;20424;-91
2022/04/03 03:03:31;;;;;;;4.50;1.10;;;27.20;51.70;;;;;;5032510;28;20405;-93
2022/04/03 03:05:58;;;;;;;3.30;1.10;;;27.90;49.90;;;;;;5032158;28;20382;-87
2022/04/03 03:08:25;;;;;;;3.13;1.10;;;27.90;49.20;;;;;;5032011;28;20377;-86
2022/04/03 03:10:52;;;;;;;3.10;1.23;;;27.90;49.30;;;;;;5031813;28;20385;-86
2022/04/03 03:13:22;;;;;;;3.58;1.10;;;28.40;50.50;;;;;;5031866;28;20389;-90
2022/04/03 03:15:49;;;;;;;3.10;1.27;;;28.50;48.60;;;;;;5031771;28;20804;-85
2022/04/03 03:18:16;;;;;;;3.97;1.02;;;28.10;48.10;;;;;;5014278;28;20385;-86
2022/04/03 03:20:43;;;;;;;2.92;0.90;;;28.00;48.50;;;;;;5032183;28;20436;-85
2022/04/03 03:23:10;;;;;;;1.80;1.00;;;28.00;48.10;;;;;;5031572;28;20400;-85
2022/04/03 03:25:38;;;;;;;3.60;0.93;;;28.30;47.60;;;;;;5031764;28;20381;-86
2022/04/03 03:28:05;;;;;;;3.43;0.97;;;28.30;48.10;;;;;;5031748;28;20400;-90
2022/04/03 03:30:33;;;;;;;3.23;0.90;;;29.00;46.70;;;;;;5031623;28;20381;-83
2022/04/03 03:33:00;;;;;;;2.95;1.10;;;28.90;46.90;;;;;;5031960;28;20381;-89
2022/04/03 03:35:28;;;;;;;2.70;1.10;;;29.10;48.40;;;;;;5013941;28;20480;-86
2022/04/03 03:37:55;;;;;;;2.50;1.00;;;30.10;46.70;;;;;;5031659;28;20381;-86
2022/04/03 03:40:23;;;;;;;9.07;1.50;;;30.00;45.60;;;;;;5031780;28;20397;-86
2022/04/03 03:42:49;;;;;;;2.88;1.00;;;29.70;45.70;;;;;;5031131;28;20791;-90
2022/04/03 03:45:17;;;;;;;4.20;1.00;;;29.00;46.10;;;;;;5031270;28;20469;-89
2022/04/03 03:47:45;;;;;;;3.42;0.90;;;27.80;46.60;;;;;;5031634;28;20380;-85
2022/04/03 03:50:13;;;;;;;2.57;0.93;;;28.10;47.60;;;;;;5031118;28;20385;-86
2022/04/03 03:52:42;;;;;;;3.78;1.10;;;28.40;47.50;;;;;;5031356;28;20382;-84
2022/04/03 03:55:09;;;;;;;4.25;1.23;;;28.00;48.00;;;;;;5031616;28;20385;-88
2022/04/03 03:57:38;;;;;;;2.53;0.95;;;28.50;47.80;;;;;;5032215;28;20378;-90
2022/04/03 04:00:09;;;;;;;3.53;0.98;;;29.20;45.20;;;;;;5033585;28;20401;-87
2022/04/03 04:02:36;;;;;;;1.40;0.90;;;29.90;44.10;;;;;;5035219;28;20808;-88
2022/04/03 04:05:03;;;;;;;4.07;1.20;;;29.70;46.40;;;;;;5015958;28;20388;-89
2022/04/03 04:07:44;;;;;;;3.97;1.05;;;29.70;43.20;;;;;;5038852;28;20404;-87
2022/04/03 04:10:13;;;;;;;3.92;1.08;;;29.80;44.00;;;;;;5035938;28;20843;-89
2022/04/03 04:12:41;;;;;;;2.00;0.95;;;29.80;43.60;;;;;;5035765;28;20392;-81
2022/04/03 04:15:11;;;;;;;3.65;0.90;;;29.40;43.00;;;;;;5037955;28;20374;-90
2022/04/03 04:17:42;;;;;;;4.72;1.67;;;29.50;42.30;;;;;;5033969;28;20374;-87
2022/04/03 04:20:12;;;;;;;2.47;1.10;;;29.10;42.30;;;;;;5033559;28;20484;-90
2022/04/03 04:22:50;;;;;;;3.95;1.00;;;29.50;44.10;;;;;;5040693;28;20388;-80
2022/04/03 04:25:19;;;;;;;3.55;0.90;;;29.40;41.20;;;;;;5046478;28;20378;-83
2022/04/03 04:27:46;;;;;;;1.73;0.83;;;29.10;42.50;;;;;;5045164;28;20357;-87
2022/04/03 04:30:15;;;;;;;2.28;1.10;;;29.30;42.30;;;;;;5044274;28;20480;-83
2022/04/03 04:32:42;;;;;;;2.58;1.00;;;29.40;41.80;;;;;;5044739;28;20378;-83
2022/04/03 04:35:09;;;;;;;3.83;1.20;;;28.80;42.20;;;;;;5033396;28;20393;-88
2022/04/03 04:37:36;;;;;;;3.55;1.02;;;28.50;43.20;;;;;;5030803;28;20380;-89
2022/04/03 04:40:05;;;;;;;1.60;1.00;;;28.10;43.30;;;;;;5012752;28;20389;-82
2022/04/03 04:42:33;;;;;;;3.22;0.98;;;27.80;43.40;;;;;;5012527;28;20727;-84
2022/04/03 04:45:00;;;;;;;3.60;1.30;;;27.50;44.40;;;;;;5030077;28;20476;-85
2022/04/03 04:47:27;;;;;;;3.75;1.10;;;27.20;45.40;;;;;;5029967;28;20400;-87
2022/04/03 04:49:54;;;;;;;2.58;1.00;;;27.30;45.30;;;;;;5030468;28;20404;-82
2022/04/03 04:52:23;;;;;;;2.50;0.98;;;27.10;44.70;;;;;;5013168;28;20822;-83
2022/04/03 04:54:50;;;;;;;2.90;1.10;;;27.00;45.10;;;;;;5030139;28;20408;-86
2022/04/03 04:57:17;;;;;;;4.38;1.23;;;26.90;45.90;;;;;;5030568;28;20432;-86
2022/04/03 04:59:44;;;;;;;3.67;1.10;;;26.90;45.30;;;;;;5029906;28;20405;-84
2022/04/03 05:02:11;;;;;;;3.72;1.20;;;26.70;45.00;;;;;;5029860;28;20370;-91
2022/04/03 05:04:38;;;;;;;2.95;1.42;;;26.60;45.50;;;;;;5031418;28;20393;-87
2022/04/03 05:07:06;;;;;;;3.60;1.20;;;26.60;46.20;;;;;;5033304;28;20374;-85
2022/04/03 05:09:33;;;;;;;5.40;2.35;;;26.70;44.60;;;;;;5021907;28;20382;-84
2022/04/03 05:12:01;;;;;;;4.35;1.73;;;26.60;45.90;;;;;;5039745;28;20428;-82
2022/04/03 05:14:28;;;;;;;4.25;1.10;;;26.70;45.10;;;;;;5032365;28;20509;-85
2022/04/03 05:16:55;;;;;;;2.75;1.20;;;26.40;45.60;;;;;;5031459;28;20373;-83
2022/04/03 05:19:24;;;;;;;3.03;1.30;;;26.40;45.40;;;;;;5036674;28;20394;-81
2022/04/03 05:21:51;;;;;;;4.32;1.08;;;26.30;44.90;;;;;;5040458;28;20795;-84
2022/04/03 05:24:18;;;;;;;2.55;1.40;;;26.20;45.00;;;;;;5033942;28;20451;-89
2022/04/03 05:26:45;;;;;;;3.70;1.13;;;26.10;46.20;;;;;;5012451;28;20389;-82
2022/04/03 05:29:12;;;;;;;4.78;2.00;;;26.00;45.60;;;;;;5030006;28;20378;-81
2022/04/03 05:31:39;;;;;;;3.22;1.30;;;26.00;45.30;;;;;;5029182;28;20424;-83
2022/04/03 05:34:08;;;;;;;3.08;1.30;;;26.10;45.80;;;;;;5029836;28;20420;-86
2022/04/03 05:36:36;;;;;;;4.35;1.33;;;26.00;45.30;;;;;;5029427;28;20385;-83
2022/04/03 05:39:05;;;;;;;3.70;1.45;;;26.00;45.80;;;;;;5029140;28;20466;-84
2022/04/03 05:41:33;;;;;;;5.25;1.20;;;25.90;46.20;;;;;;5029782;28;20395;-83
2022/04/03 05:44:01;;;;;;;3.17;1.27;;;26.20;45.70;;;;;;5029618;28;20757;-88
2022/04/03 05:46:29;;;;;;;3.10;1.40;;;26.20;45.20;;;;;;5012383;28;20427;-93
2022/04/03 05:48:59;;;;;;;3.22;1.40;;;26.00;45.20;;;;;;5030179;28;20503;-86
2022/04/03 05:51:29;;;;;;;6.13;1.40;;;26.00;45.80;;;;;;5029892;28;20457;-86
2022/04/03 05:53:56;;;;;;;5.13;1.50;;;25.80;46.30;;;;;;5029124;28;20378;-85
2022/04/03 05:56:27;;;;;;;4.57;1.60;;;25.80;45.80;;;;;;5029298;28;20389;-87
2022/04/03 05:58:55;;;;;;;3.22;1.70;;;25.70;46.60;;;;;;5029171;28;20393;-88
2022/04/03 06:01:22;;;;;;;5.50;1.70;;;25.60;46.20;;;;;;5011873;28;20421;-87
2022/04/03 06:03:49;;;;;;;2.72;1.70;;;25.50;46.40;;;;;;5016340;28;20389;-82
2022/04/03 06:06:17;;;;;;;5.97;1.70;;;25.40;47.00;;;;;;5033534;28;20456;-82
2022/04/03 06:08:44;;;;;;;4.40;2.00;;;25.30;47.20;;;;;;5028943;28;20374;-84
2022/04/03 06:11:11;;;;;;;3.95;1.90;;;25.20;47.60;;;;;;5029178;28;20757;-86
2022/04/03 06:13:39;;;;;;;4.07;1.80;;;25.10;48.30;;;;;;5029034;28;20392;-83
2022/04/03 06:16:06;;;;;;;4.20;1.80;;;25.10;47.70;;;;;;5029059;28;20373;-87
2022/04/03 06:18:33;;;;;;;7.72;1.88;;;25.00;48.70;;;;;;5029227;28;20391;-91
2022/04/03 06:21:00;;;;;;;6.72;1.80;;;25.00;49.40;;;;;;5029732;28;20405;-82
2022/04/03 06:23:27;;;;;;;6.20;2.00;;;25.00;48.20;;;;;;5029203;28;20396;-88
2022/04/03 06:25:56;;;;;;;5.30;2.00;;;24.90;48.40;;;;;;5029683;28;20947;-92
2022/04/03 06:28:23;;;;;;;3.88;1.90;;;24.80;49.10;;;;;;5030138;28;20460;-86
2022/04/03 06:30:50;;;;;;;2.95;1.83;;;24.80;49.10;;;;;;5029623;28;20749;-82
2022/04/03 06:33:18;;;;;;;5.82;2.00;;;24.70;48.80;;;;;;5029113;28;20426;-90
2022/04/03 06:35:46;;;;;;;4.47;1.98;;;24.70;50.10;;;;;;5029188;28;20385;-83
2022/04/03 06:38:14;;;;;;;5.43;1.70;;;24.60;49.50;;;;;;5028924;28;20374;-81
2022/04/03 06:41:00;;;;;;;4.50;1.80;;;24.60;50.00;;;;;;5028972;28;20849;-93
2022/04/03 06:43:30;;;;;;;4.00;1.85;;;24.50;50.10;;;;;;5029441;28;20897;-85
2022/04/03 06:45:58;;;;;;;6.05;2.17;;;24.50;50.70;;;;;;5029497;28;20391;-89
2022/04/03 06:48:28;;;;;;;4.93;2.22;;;24.40;51.70;;;;;;5031757;28;20468;-92
2022/04/03 06:50:56;;;;;;;4.78;2.00;;;24.40;51.80;;;;;;5028955;28;20392;-85
2022/04/03 06:53:23;;;;;;;5.43;2.17;;;24.30;52.20;;;;;;5012376;28;20382;-87
2022/04/03 06:55:50;;;;;;;3.57;1.87;;;24.20;52.20;;;;;;5029424;28;20711;-87
2022/04/03 06:58:17;;;;;;;3.90;2.00;;;24.10;52.40;;;;;;5029087;28;20865;-87
2022/04/03 07:00:44;;;;;;;7.55;2.40;;;24.00;52.70;;;;;;5011999;28;20821;-87
2022/04/03 07:03:11;;;;;;;4.13;2.10;;;24.00;52.10;;;;;;5029902;28;20369;-90
2022/04/03 07:05:38;;;;;;;6.15;2.10;;;23.90;52.20;;;;;;5029083;28;20388;-90
2022/04/03 07:08:06;;;;;;;5.50;2.00;;;23.90;53.20;;;;;;5030453;28;20467;-85
2022/04/03 07:10:33;;;;;;;6.15;3.20;;;23.80;53.30;;;;;;5029027;28;20389;-87
2022/04/03 07:13:00;;;;;;;6.35;3.45;;;23.80;54.30;;;;;;5032036;28;20370;-86
2022/04/03 07:15:27;;;;;;;7.67;3.60;;;23.70;54.00;;;;;;5014806;28;20370;-86
2022/04/03 07:17:54;;;;;;;7.50;4.10;;;23.60;54.60;;;;;;5032858;28;20386;-86
2022/04/03 07:20:21;;;;;;;5.55;3.13;;;23.50;55.50;;;;;;5032323;28;20412;-86
2022/04/03 07:22:49;;;;;;;5.32;2.50;;;22.90;55.60;;;;;;5032116;28;20745;-84
2022/04/03 07:25:16;;;;;;;8.20;2.38;;;23.40;57.80;;;;;;5032510;28;20445;-84
2022/04/03 07:27:43;;;;;;;3.63;2.20;;;23.50;57.50;;;;;;5032231;28;20401;-81
2022/04/03 07:30:12;;;;;;;3.97;2.00;;;23.70;57.70;;;;;;5031876;28;20412;-91
2022/04/03 07:32:40;;;;;;;4.35;2.08;;;23.90;57.30;;;;;;5031561;28;20424;-86
2022/04/03 07:35:08;;;;;;;3.83;2.03;;;24.00;56.60;;;;;;5031804;28;20435;-88
2022/04/03 07:37:35;;;;;;;4.00;2.00;;;24.20;56.60;;;;;;5031770;28;20373;-87
2022/04/03 07:40:06;;;;;;;4.73;1.87;;;24.20;56.50;;;;;;5031573;28;20549;-90
2022/04/03 07:42:33;;;;;;;3.28;1.90;;;24.20;56.40;;;;;;5031612;28;20384;-84
2022/04/03 07:45:01;;;;;;;4.63;2.10;;;23.90;57.30;;;;;;5031111;28;20402;-89
2022/04/03 07:47:31;;;;;;;4.53;2.07;;;23.60;58.30;;;;;;5031328;28;20374;-90
2022/04/03 07:49:59;;;;;;;3.83;2.00;;;23.30;58.70;;;;;;5031609;28;20381;-86
2022/04/03 07:52:26;;;;;;;6.25;2.00;;;23.10;59.80;;;;;;5031592;28;20380;-90
2022/04/03 07:54:53;;;;;;;3.95;1.88;;;22.80;61.00;;;;;;5031634;28;20725;-88
2022/04/03 07:57:20;;;;;;;5.53;1.80;;;22.70;61.10;;;;;;5031619;28;20472;-90
2022/04/03 07:59:47;;;;;;;4.55;1.60;;;22.50;61.40;;;;;;5031836;28;20403;-88
2022/04/03 08:02:15;;;;;;;6.60;2.17;;;22.40;61.50;;;;;;5033302;28;20473;-84
2022/04/03 08:04:44;;;;;;;4.00;1.80;;;22.20;62.40;;;;;;5038835;28;20876;-90
2022/04/03 08:07:12;;;;;;;5.40;1.80;;;22.10;62.90;;;;;;5031500;28;20382;-91
2022/04/03 08:09:39;;;;;;;4.82;1.60;;;22.10;63.30;;;;;;5031402;28;20378;-90
2022/04/03 08:12:07;;;;;;;3.70;1.90;;;22.10;62.90;;;;;;5033522;28;20377;-89
2022/04/03 08:14:37;;;;;;;4.85;1.90;;;22.00;63.10;;;;;;5031338;28;20431;-86
2022/04/03 08:17:05;;;;;;;3.58;1.80;;;21.90;63.10;;;;;;5030984;28;20382;-89
2022/04/03 08:19:32;;;;;;;5.05;1.80;;;21.80;63.60;;;;;;5031069;28;20421;-87
2022/04/03 08:22:00;;;;;;;3.92;1.77;;;21.70;63.60;;;;;;5030763;28;20748;-90
2022/04/03 08:24:27;;;;;;;3.53;1.63;;;21.50;64.20;;;;;;5030980;28;20373;-88
2022/04/03 08:26:54;;;;;;;2.67;1.67;;;21.30;64.80;;;;;;5031768;28;20377;-88
2022/04/03 08:29:21;;;;;;;4.55;1.90;;;21.20;65.70;;;;;;5032069;28;20379;-88
2022/04/03 08:31:48;;;;;;;2.40;1.70;;;21.10;66.30;;;;;;5032044;28;20380;-86
2022/04/03 08:34:15;;;;;;;4.15;1.90;;;21.00;66.20;;;;;;5033489;28;20395;-86
2022/04/03 08:36:42;;;;;;;4.20;1.67;;;21.00;67.00;;;;;;5032702;28;20392;-89
2022/04/03 08:39:09;;;;;;;4.10;1.73;;;20.90;67.30;;;;;;5038138;28;20378;-85
2022/04/03 08:41:36;;;;;;;4.03;1.70;;;20.90;67.50;;;;;;5043187;28;20382;-90
2022/04/03 08:44:07;;;;;;;5.32;1.85;;;20.80;67.30;;;;;;5034154;28;20425;-88
2022/04/03 08:46:35;;;;;;;4.20;1.52;;;20.80;67.70;;;;;;5031864;28;20389;-87
2022/04/03 08:49:03;;;;;;;6.57;2.08;;;20.90;67.90;;;;;;5033740;28;20384;-90
2022/04/03 08:51:32;;;;;;;3.80;1.80;;;20.80;68.00;;;;;;5016008;28;20476;-89
2022/04/03 08:53:59;;;;;;;3.42;1.50;;;20.80;68.10;;;;;;5046754;28;20876;-84
2022/04/03 08:56:26;;;;;;;3.28;1.50;;;20.80;68.00;;;;;;5013458;28;20524;-91
2022/04/03 08:58:53;;;;;;;2.30;1.50;;;20.70;67.80;;;;;;5031431;28;20374;-90
2022/04/03 09:01:20;;;;;;;3.83;1.77;;;20.80;67.60;;;;;;5030417;28;20964;-85
2022/04/03 09:03:47;;;;;;;3.28;1.75;;;20.80;67.70;;;;;;5030413;28;20382;-85
2022/04/03 09:06:16;;;;;;;2.80;1.50;;;20.80;67.60;;;;;;5029922;28;20385;-87
2022/04/03 09:08:49;;;;;;;3.30;1.40;;;20.70;66.60;;;;;;5030099;28;20373;-86
2022/04/03 09:11:17;;;;;;;4.15;1.42;;;20.70;67.10;;;;;;5030140;28;20854;-87
2022/04/03 09:13:44;;;;;;;2.13;1.38;;;20.60;67.10;;;;;;5030100;28;20480;-87
2022/04/03 09:16:12;;;;;;;2.92;1.45;;;20.60;67.20;;;;;;5029960;28;20393;-85
2022/04/03 09:18:50;;;;;;;3.10;1.40;;;20.50;67.30;;;;;;5029790;28;20428;-87
2022/04/03 09:21:16;;;;;;;2.38;1.33;;;20.40;67.10;;;;;;5012197;28;20412;-86
2022/04/03 09:24:04;;;;;;;3.42;1.33;;;20.30;67.80;;;;;;5030586;28;20761;-88
2022/04/03 09:26:33;;;;;;;2.00;1.20;;;20.20;67.90;;;;;;5029889;28;20776;-84
2022/04/03 09:29:12;;;;;;;2.90;1.25;;;20.10;68.60;;;;;;5029596;28;20387;-87
2022/04/03 09:31:40;;;;;;;1.73;1.20;;;20.00;69.00;;;;;;5029822;28;20382;-87
2022/04/03 09:34:14;;;;;;;2.55;1.30;;;19.90;69.40;;;;;;5029233;28;20386;-88
2022/04/03 09:36:41;;;;;;;4.32;1.48;;;19.90;69.80;;;;;;5029786;28;20385;-85
2022/04/03 09:39:19;;;;;;;3.53;1.20;;;19.80;70.50;;;;;;5029657;28;20412;-87
2022/04/03 09:42:05;;;;;;;3.25;1.13;;;19.60;70.90;;;;;;5030151;28;20420;-85
2022/04/03 09:44:34;;;;;;;3.00;1.40;;;19.50;72.40;;;;;;5029352;28;20476;-85
2022/04/03 09:47:20;;;;;;;2.72;1.23;;;19.40;73.30;;;;;;5011633;28;20746;-84
2022/04/03 09:50:05;;;;;;;2.95;1.33;;;19.30;73.50;;;;;;5030020;28;20361;-89
2022/04/03 09:52:36;;;;;;;2.33;1.10;;;19.30;74.30;;;;;;5029699;28;20927;-85
2022/04/03 09:55:24;;;;;;;1.67;1.10;;;19.20;74.10;;;;;;5029643;28;20409;-84
2022/04/03 09:58:05;;;;;;;3.03;1.30;;;19.20;75.30;;;;;;5032825;28;20388;-86
2022/04/03 10:00:33;;;;;;;3.80;1.25;;;19.20;76.10;;;;;;5012775;28;20461;-87
2022/04/03 10:03:04;;;;;;;4.13;1.20;;;19.10;76.20;;;;;;5044980;28;20406;-86
2022/04/03 10:05:36;;;;;;;3.22;1.50;;;19.10;76.40;;;;;;5029724;28;20458;-84
2022/04/03 10:08:06;;;;;;;6.35;1.40;;;19.10;76.00;;;;;;5029312;28;20385;-85
2022/04/03 10:10:34;;;;;;;2.65;1.50;;;19.10;76.20;;;;;;5029549;28;20382;-87
2022/04/03 10:13:03;;;;;;;4.40;1.10;;;19.10;76.60;;;;;;5011387;28;20390;-85
2022/04/03 10:15:30;;;;;;;3.30;1.30;;;19.00;77.00;;;;;;5029746;28;20393;-86
2022/04/03 10:17:57;;;;;;;2.70;1.30;;;18.90;77.50;;;;;;5029519;28;20471;-88
2022/04/03 10:20:28;;;;;;;3.00;1.20;;;18.80;78.00;;;;;;5029750;28;20417;-88
2022/04/03 10:23:03;;;;;;;2.85;1.35;;;18.80;78.70;;;;;;5011562;28;20412;-88
2022/04/03 10:25:36;;;;;;;4.40;1.30;;;18.70;79.60;;;;;;5029723;28;20695;-85
2022/04/03 10:28:05;;;;;;;2.78;1.48;;;18.70;80.00;;;;;;5029443;28;20492;-84
2022/04/03 10:30:43;;;;;;;2.90;1.67;;;18.70;80.20;;;;;;5011001;28;20381;-85
2022/04/03 10:33:24;;;;;;;3.80;1.50;;;18.80;79.90;;;;;;5029026;28;20392;-85
2022/04/03 10:36:08;;;;;;;2.95;1.50;;;18.80;79.50;;;;;;5029112;28;20377;-87
2022/04/03 10:38:40;;;;;;;3.55;1.42;;;18.90;79.60;;;;;;5029224;28;20453;-85
2022/04/03 10:41:07;;;;;;;3.90;1.40;;;18.80;79.00;;;;;;5028721;28;20953;-85
2022/04/03 10:43:41;;;;;;;4.78;1.35;;;18.90;79.50;;;;;;5028807;28;20396;-87
2022/04/03 10:46:08;;;;;;;3.42;1.10;;;18.80;79.80;;;;;;5031287;28;20373;-83
2022/04/03 10:48:36;;;;;;;3.20;1.25;;;18.80;79.80;;;;;;5015144;28;20499;-86
2022/04/03 10:51:10;;;;;;;4.40;1.40;;;18.80;80.20;;;;;;5015424;28;20385;-87
2022/04/03 10:53:42;;;;;;;3.45;1.52;;;18.80;80.40;;;;;;5033063;28;20362;-90
2022/04/03 10:56:21;;;;;;;4.22;1.45;;;18.70;80.90;;;;;;5032892;28;20438;-89
2022/04/03 10:58:54;;;;;;;3.05;1.42;;;18.60;82.20;;;;;;5033507;28;20396;-85
2022/04/03 11:01:33;;;;;;;4.07;1.60;;;18.40;83.30;;;;;;5032775;28;20410;-88
2022/04/03 11:04:14;;;;;;;4.15;1.30;;;18.20;85.00;;;;;;5032503;28;20913;-84
2022/04/03 11:06:43;;;;;;;4.43;1.45;;;18.00;87.10;;;;;;5033917;28;20474;-89
2022/04/03 11:09:15;;;;;;;3.40;1.20;;;17.70;88.50;;;;;;5015608;28;20377;-84
2022/04/03 11:11:48;;;;;;;3.83;1.40;;;17.80;90.10;;;;;;5033261;28;20401;-87
2022/04/03 11:14:55;;;;;;;2.30;1.20;;;17.80;90.70;;;;;;5032807;28;20765;-88
2022/04/03 11:17:45;;;;;;;3.80;1.35;;;17.80;90.90;;;;;;5032170;28;20428;-87
2022/04/03 11:20:40;;;;;;;5.28;3.40;;;17.80;91.20;;;;;;5032505;28;20400;-88
2022/04/03 11:23:14;;;;;;;4.93;2.70;;;17.70;91.80;;;;;;5032404;28;20389;-87
2022/04/03 11:25:43;;;;;;;3.47;1.60;;;17.70;92.50;;;;;;5031817;28;20377;-86
2022/04/03 11:28:10;;;;;;;4.70;1.55;;;17.60;92.90;;;;;;5032037;28;20435;-84
2022/04/03 11:30:38;;;;;;;3.00;1.40;;;17.50;93.60;;;;;;5031886;28;20382;-87
2022/04/03 11:33:06;;;;;;;2.80;1.27;;;17.50;94.20;;;;;;5031754;28;20377;-88
2022/04/03 11:35:39;;;;;;;2.85;1.15;;;17.40;95.00;;;;;;5031722;28;20875;-87
2022/04/03 11:38:07;;;;;;;4.07;1.40;;;17.30;95.60;;;;;;5032044;28;20377;-86
2022/04/03 11:40:35;;;;;;;3.15;1.40;;;17.30;95.90;;;;;;5032309;28;20458;-86
2022/04/03 11:43:09;;;;;;;2.17;1.58;;;17.20;96.40;;;;;;4997194;28;20390;-88
2022/04/03 11:45:37;;;;;;;3.08;1.40;;;17.20;97.00;;;;;;5032103;28;20519;-87
2022/04/03 11:48:18;;;;;;;4.03;1.98;;;17.10;97.30;;;;;;5032078;28;20447;-88
2022/04/03 11:50:45;;;;;;;3.00;1.60;;;17.10;97.70;;;;;;5033202;28;20402;-87
2022/04/03 11:53:13;;;;;;;3.47;1.55;;;17.10;97.90;;;;;;5033184;28;20452;-85
2022/04/03 11:55:40;;;;;;;4.00;1.75;;;17.10;97.50;;;;;;5034213;28;20515;-87
2022/04/03 11:58:07;;;;;;;4.00;1.60;;;17.20;97.30;;;;;;5038957;28;20385;-85
2022/04/03 12:00:44;;;;;;;4.27;1.60;;;17.30;96.40;;;;;;5044292;28;20405;-88
2022/04/03 12:03:11;;;;;;;3.58;1.42;;;17.40;96.40;;;;;;5035450;28;20382;-86
2022/04/03 12:05:41;;;;;;;3.67;1.55;;;17.40;96.50;;;;;;5014371;28;20421;-87
2022/04/03 12:08:08;;;;;;;5.13;1.60;;;17.40;96.80;;;;;;5031179;28;20943;-86
2022/04/03 12:10:35;;;;;;;4.38;1.50;;;17.30;97.10;;;;;;5031582;28;20435;-86
2022/04/03 12:13:08;;;;;;;2.58;1.45;;;17.30;97.00;;;;;;5031713;28;20424;-83
2022/04/03 12:15:38;;;;;;;3.55;1.92;;;17.30;96.80;;;;;;5031503;28;20370;-86
2022/04/03 12:18:06;;;;;;;3.95;1.90;;;17.40;96.30;;;;;;5014174;28;20381;-86
2022/04/03 12:20:36;;;;;;;3.80;1.90;;;17.40;96.10;;;;;;5031387;28;20930;-86
2022/04/03 12:23:08;;;;;;;4.07;1.80;;;17.40;96.40;;;;;;5031260;28;20988;-86
2022/04/03 12:25:35;;;;;;;3.65;1.60;;;17.40;96.80;;;;;;5031626;28;20379;-85
2022/04/03 12:28:02;;;;;;;4.45;1.70;;;17.30;97.30;;;;;;5031833;28;20877;-87
2022/04/03 12:30:32;;;;;;;3.22;1.70;;;17.20;97.50;;;;;;5030955;28;20881;-87
2022/04/03 12:32:59;;;;;;;3.00;1.50;;;17.20;97.50;;;;;;5030836;28;20376;-87
2022/04/03 12:35:30;;;;;;;3.00;1.33;;;17.10;97.90;;;;;;5030816;28;20427;-85
2022/04/03 12:38:03;;;;;;;3.30;1.65;;;17.10;98.20;;;;;;5012752;28;20870;-87
2022/04/03 12:40:30;;;;;;;2.60;1.60;;;17.00;98.20;;;;;;5030680;28;20443;-87
2022/04/03 12:43:07;;;;;;;2.22;1.60;;;17.00;98.20;;;;;;5030062;28;20456;-85
2022/04/03 12:45:37;;;;;;;2.60;1.60;;;17.00;98.10;;;;;;5030440;28;20456;-85
2022/04/03 12:48:05;;;;;;;4.43;2.55;;;17.00;98.30;;;;;;5030581;28;20401;-86
2022/04/03 12:50:40;;;;;;;3.93;2.80;;;16.90;98.50;;;;;;5030447;28;20377;-86
2022/04/03 12:53:14;;;;;;;3.70;2.50;;;16.90;98.60;;;;;;5030598;28;20392;-83
2022/04/03 12:55:52;;;;;;;2.72;1.80;;;16.80;99.00;;;;;;5012927;28;20687;-84
2022/04/03 12:58:31;;;;;;;3.63;1.90;;;16.80;99.40;;;;;;5030668;28;20370;-85